createdAt,value
2018-01-02T00:02:12.915Z,87.08
2018-01-02T00:04:41.232Z,87.01
2018-01-02T00:07:09.529Z,86.74
2018-01-02T00:09:37.840Z,86.24
2018-01-02T00:12:06.902Z,86.02
2018-01-02T00:14:35.219Z,85.62
2018-01-02T00:17:04.286Z,85.50
2018-01-02T00:19:32.578Z,85.76
2018-01-02T00:22:01.645Z,85.99
2018-01-02T00:24:29.948Z,86.22
2018-01-02T00:26:58.238Z,86.37
2018-01-02T00:29:28.066Z,86.33
2018-01-02T00:31:56.364Z,86.23
2018-01-02T00:34:25.437Z,86.42
2018-01-02T00:36:53.806Z,86.68
2018-01-02T00:39:22.128Z,86.65
2018-01-02T00:41:51.183Z,86.59
2018-01-02T00:44:19.464Z,86.57
2018-01-02T00:46:47.764Z,86.41
2018-01-02T00:49:16.083Z,86.23
2018-01-02T00:51:44.390Z,86.12
2018-01-02T00:54:12.700Z,85.96
2018-01-02T00:56:42.506Z,85.76
2018-01-02T00:59:10.932Z,85.72
2018-01-02T01:01:40.035Z,85.71
2018-01-02T01:04:08.350Z,85.64
2018-01-02T01:06:36.668Z,85.71
2018-01-02T01:09:04.983Z,85.65
2018-01-02T01:11:33.305Z,85.58
2018-01-02T01:14:01.618Z,85.81
2018-01-02T01:16:29.939Z,85.81
2018-01-02T01:18:58.289Z,85.88
2018-01-02T01:21:26.602Z,86.00
2018-01-02T01:23:54.915Z,86.02
2018-01-02T01:26:23.415Z,85.99
2018-01-02T01:28:51.771Z,86.10
2018-01-02T01:31:20.069Z,86.04
2018-01-02T01:33:48.399Z,85.92
2018-01-02T01:36:17.466Z,85.85
2018-01-02T01:38:47.273Z,85.79
2018-01-02T01:41:15.767Z,85.86
2018-01-02T01:43:44.857Z,85.93
2018-01-02T01:46:13.385Z,85.95
2018-01-02T01:48:55.587Z,86.03
2018-01-02T01:51:23.913Z,85.99
2018-01-02T01:53:52.267Z,86.04
2018-01-02T01:56:21.461Z,86.05
2018-01-02T01:58:49.769Z,86.31
2018-01-02T02:01:18.069Z,86.45
2018-01-02T02:03:46.390Z,86.42
2018-01-02T02:06:15.457Z,86.41
2018-01-02T02:08:46.723Z,86.23
2018-01-02T02:11:16.268Z,86.17
2018-01-02T02:13:44.584Z,86.01
2018-01-02T02:16:12.913Z,85.95
2018-01-02T02:18:41.237Z,85.95
2018-01-02T02:21:09.535Z,85.89
2018-01-02T02:23:37.857Z,85.95
2018-01-02T02:26:06.969Z,86.02
2018-01-02T02:28:35.285Z,86.17
2018-01-02T02:31:03.603Z,86.17
2018-01-02T02:33:31.897Z,86.15
2018-01-02T02:36:01.004Z,86.13
2018-01-02T02:38:29.379Z,86.14
2018-01-02T02:41:08.319Z,86.12
2018-01-02T02:43:36.665Z,85.93
2018-01-02T02:46:05.777Z,85.93
2018-01-02T02:48:34.364Z,85.95
2018-01-02T02:51:03.457Z,85.79
2018-01-02T02:53:31.781Z,85.76
2018-01-02T02:56:00.062Z,85.95
2018-01-02T02:58:28.481Z,86.00
2018-01-02T03:00:56.783Z,85.85
2018-01-02T03:03:26.655Z,85.67
2018-01-02T03:05:54.957Z,85.62
2018-01-02T03:08:23.279Z,85.69
2018-01-02T03:10:52.341Z,85.73
2018-01-02T03:13:20.669Z,85.72
2018-01-02T03:15:49.772Z,85.70
2018-01-02T03:18:18.873Z,85.68
2018-01-02T03:20:47.209Z,85.67
2018-01-02T03:23:15.521Z,85.69
2018-01-02T03:25:44.589Z,85.56
2018-01-02T03:28:12.914Z,85.54
2018-01-02T03:30:41.982Z,85.57
2018-01-02T03:33:10.319Z,85.54
2018-01-02T03:35:38.631Z,85.40
2018-01-02T03:38:07.025Z,85.59
2018-01-02T03:40:36.940Z,85.80
2018-01-02T03:43:05.372Z,85.96
2018-01-02T03:45:33.903Z,86.16
2018-01-02T03:48:02.429Z,86.34
2018-01-02T03:50:30.773Z,86.11
2018-01-02T03:52:59.153Z,86.18
2018-01-02T03:55:27.457Z,86.26
2018-01-02T03:57:55.777Z,86.37
2018-01-02T04:00:24.107Z,86.39
2018-01-02T04:02:52.515Z,86.06
2018-01-02T04:05:21.601Z,85.85
2018-01-02T04:07:49.931Z,85.78
2018-01-02T04:10:18.257Z,85.69
2018-01-02T04:12:46.543Z,85.81
2018-01-02T04:15:15.136Z,85.75
2018-01-02T04:17:43.420Z,85.80
2018-01-02T04:20:11.787Z,86.04
2018-01-02T04:22:40.151Z,86.34
2018-01-02T04:25:08.557Z,86.69
2018-01-02T04:27:36.862Z,86.93
2018-01-02T04:30:05.945Z,87.28
2018-01-02T04:32:35.029Z,87.56
2018-01-02T04:35:03.321Z,87.67
2018-01-02T04:37:31.616Z,87.71
2018-01-02T04:40:00.697Z,87.87
2018-01-02T04:42:30.524Z,87.93
2018-01-02T04:45:00.318Z,87.88
2018-01-02T04:47:28.619Z,88.00
2018-01-02T04:49:57.718Z,88.18
2018-01-02T04:52:27.580Z,88.22
2018-01-02T04:54:55.875Z,88.05
2018-01-02T04:57:24.196Z,88.11
2018-01-02T04:59:54.027Z,88.20
2018-01-02T05:02:23.114Z,88.40
2018-01-02T05:04:52.169Z,88.47
2018-01-02T05:07:20.484Z,88.73
2018-01-02T05:09:49.707Z,88.88
2018-01-02T05:12:18.779Z,88.96
2018-01-02T05:14:47.096Z,89.03
2018-01-02T05:17:16.156Z,89.25
2018-01-02T05:19:45.211Z,89.39
2018-01-02T05:22:13.541Z,89.54
2018-01-02T05:24:41.838Z,89.63
2018-01-02T05:27:10.145Z,89.60
2018-01-02T05:29:39.265Z,89.69
2018-01-02T05:32:07.613Z,89.76
2018-01-02T05:34:36.693Z,89.72
2018-01-02T05:37:05.751Z,89.73
2018-01-02T05:39:34.048Z,89.71
2018-01-02T05:42:02.357Z,89.68
2018-01-02T05:44:30.658Z,89.69
2018-01-02T05:46:59.731Z,89.71
2018-01-02T05:49:28.067Z,89.79
2018-01-02T05:51:56.380Z,89.80
2018-01-02T05:54:24.715Z,89.75
2018-01-02T05:56:53.028Z,89.72
2018-01-02T05:59:21.336Z,89.62
2018-01-02T06:01:49.641Z,89.46
2018-01-02T06:04:17.941Z,89.37
2018-01-02T06:06:46.268Z,89.31
2018-01-02T06:09:14.588Z,89.24
2018-01-02T06:11:43.655Z,89.18
2018-01-02T06:14:11.994Z,89.02
2018-01-02T06:16:40.452Z,89.06
2018-01-02T06:19:08.758Z,89.05
2018-01-02T06:21:37.094Z,88.95
2018-01-02T06:24:05.407Z,88.59
2018-01-02T06:26:34.612Z,88.60
2018-01-02T06:29:03.762Z,88.46
2018-01-02T06:31:32.078Z,88.16
2018-01-02T06:34:00.400Z,88.12
2018-01-02T06:36:28.727Z,88.02
2018-01-02T06:38:57.454Z,87.74
2018-01-02T06:41:26.524Z,87.69
2018-01-02T06:43:54.878Z,87.58
2018-01-02T06:46:23.212Z,87.39
2018-01-02T06:48:52.288Z,87.62
2018-01-02T06:51:21.354Z,87.45
2018-01-02T06:53:49.661Z,86.96
2018-01-02T06:56:17.992Z,86.73
2018-01-02T06:58:46.313Z,86.45
2018-01-02T07:01:14.862Z,85.87
2018-01-02T07:03:43.176Z,85.62
2018-01-02T07:06:11.628Z,85.38
2018-01-02T07:08:39.912Z,85.31
2018-01-02T07:11:08.224Z,84.90
2018-01-02T07:13:36.520Z,84.68
2018-01-02T07:16:05.606Z,84.09
2018-01-02T07:18:33.939Z,83.51
2018-01-02T07:21:02.266Z,82.97
2018-01-02T07:23:30.677Z,82.48
2018-01-02T07:25:59.744Z,82.18
2018-01-02T07:28:28.050Z,82.27
2018-01-02T07:30:56.930Z,82.04
2018-01-02T07:33:25.226Z,81.67
2018-01-02T07:35:53.600Z,81.64
2018-01-02T07:38:21.975Z,81.61
2018-01-02T07:40:50.323Z,81.81
2018-01-02T07:43:18.646Z,81.93
2018-01-02T07:45:46.997Z,81.59
2018-01-02T07:48:15.324Z,81.48
2018-01-02T07:50:43.839Z,81.27
2018-01-02T07:53:12.995Z,81.28
2018-01-02T07:55:41.319Z,81.36
2018-01-02T07:58:10.394Z,81.27
2018-01-02T08:00:38.706Z,80.75
2018-01-02T08:03:07.018Z,80.43
2018-01-02T08:05:35.443Z,80.38
2018-01-02T08:08:03.796Z,79.87
2018-01-02T08:10:32.168Z,80.48
2018-01-02T08:13:00.475Z,80.51
2018-01-02T08:15:29.485Z,80.30
2018-01-02T08:17:58.592Z,80.45
2018-01-02T08:20:26.910Z,80.83
2018-01-02T08:22:55.217Z,81.56
2018-01-02T08:25:23.518Z,82.23
2018-01-02T08:27:51.818Z,82.55
2018-01-02T08:30:20.901Z,82.93
2018-01-02T08:32:49.971Z,83.34
2018-01-02T08:35:18.384Z,83.58
2018-01-02T08:37:46.836Z,83.71
2018-01-02T08:40:15.129Z,83.83
2018-01-02T08:42:43.430Z,84.11
2018-01-02T08:45:11.762Z,84.38
2018-01-02T08:47:40.071Z,84.53
2018-01-02T08:50:08.374Z,84.71
2018-01-02T08:52:36.691Z,85.84
2018-01-02T08:55:05.042Z,86.31
2018-01-02T08:57:33.350Z,86.67
2018-01-02T09:00:02.426Z,86.91
2018-01-02T09:02:32.258Z,87.50
2018-01-02T09:05:01.497Z,87.50
2018-01-02T09:07:29.912Z,87.39
2018-01-02T09:09:58.257Z,87.26
2018-01-02T09:12:32.122Z,87.14
2018-01-02T09:15:00.434Z,87.07
2018-01-02T09:17:29.561Z,87.05
2018-01-02T09:19:57.877Z,86.99
2018-01-02T09:22:27.891Z,86.93
2018-01-02T09:24:56.200Z,86.73
2018-01-02T09:27:25.302Z,86.69
2018-01-02T09:29:54.384Z,86.63
2018-01-02T09:32:23.483Z,85.68
2018-01-02T09:34:51.790Z,85.38
2018-01-02T09:37:20.867Z,84.92
2018-01-02T09:39:50.125Z,84.50
2018-01-02T09:42:18.458Z,84.24
2018-01-02T09:44:46.752Z,84.10
2018-01-02T09:47:15.804Z,83.88
2018-01-02T09:49:44.202Z,83.61
2018-01-02T09:52:12.580Z,83.57
2018-01-02T09:54:40.934Z,83.50
2018-01-02T09:57:09.236Z,83.39
2018-01-02T09:59:37.586Z,83.23
2018-01-02T10:02:05.900Z,83.31
2018-01-02T10:04:34.256Z,82.93
2018-01-02T10:07:03.408Z,82.57
2018-01-02T10:09:31.777Z,82.45
2018-01-02T10:12:00.096Z,82.12
2018-01-02T10:14:29.208Z,81.81
2018-01-02T10:16:57.522Z,81.80
2018-01-02T10:19:25.937Z,82.05
2018-01-02T10:21:54.290Z,81.91
2018-01-02T10:24:22.614Z,81.74
2018-01-02T10:26:50.975Z,81.65
2018-01-02T10:29:19.349Z,81.36
2018-01-02T10:31:47.674Z,81.33
2018-01-02T10:34:16.014Z,80.84
2018-01-02T10:36:44.558Z,80.40
2018-01-02T10:39:12.876Z,80.48
2018-01-02T10:41:41.261Z,80.32
2018-01-02T10:44:09.605Z,79.81
2018-01-02T10:46:37.910Z,79.76
2018-01-02T10:49:06.316Z,79.88
2018-01-02T10:51:34.687Z,79.66
2018-01-02T10:54:03.018Z,79.58
2018-01-02T10:56:32.089Z,79.10
2018-01-02T10:59:00.454Z,79.10
2018-01-02T11:01:28.741Z,79.25
2018-01-02T11:03:57.848Z,79.32
2018-01-02T11:06:26.149Z,79.39
2018-01-02T11:08:54.506Z,79.03
2018-01-02T11:11:22.821Z,78.89
2018-01-02T11:13:53.808Z,78.99
2018-01-02T11:16:22.127Z,79.00
2018-01-02T11:18:51.213Z,79.37
2018-01-02T11:21:19.514Z,78.76
2018-01-02T11:23:48.604Z,78.82
2018-01-02T11:26:17.817Z,78.30
2018-01-02T11:28:46.237Z,78.48
2018-01-02T11:31:14.544Z,78.17
2018-01-02T11:33:42.957Z,77.95
2018-01-02T11:36:12.764Z,77.54
2018-01-02T11:38:41.155Z,77.28
2018-01-02T11:41:09.483Z,77.27
2018-01-02T11:43:37.823Z,77.19
2018-01-02T11:46:06.124Z,77.20
2018-01-02T11:48:35.458Z,77.56
2018-01-02T11:51:03.792Z,77.11
2018-01-02T11:53:32.128Z,76.94
2018-01-02T11:56:00.439Z,77.49
2018-01-02T11:58:28.747Z,76.96
2018-01-02T12:00:57.069Z,76.63
2018-01-02T12:03:25.407Z,76.59
2018-01-02T12:05:54.490Z,77.26
2018-01-02T12:08:22.791Z,76.96
2018-01-02T12:10:51.093Z,76.95
2018-01-02T12:13:20.175Z,76.45
2018-01-02T12:15:49.277Z,76.62
2018-01-02T12:18:18.355Z,76.29
2018-01-02T12:20:47.421Z,75.71
2018-01-02T12:23:15.757Z,76.00
2018-01-02T12:25:44.092Z,75.88
2018-01-02T12:28:12.437Z,76.13
2018-01-02T12:30:40.772Z,76.18
2018-01-02T12:33:10.011Z,76.53
2018-01-02T12:35:39.069Z,76.36
2018-01-02T12:38:07.390Z,76.23
2018-01-02T12:40:36.474Z,76.05
2018-01-02T12:43:04.795Z,76.07
2018-01-02T12:45:33.113Z,75.70
2018-01-02T12:48:01.421Z,75.56
2018-01-02T12:50:29.739Z,75.38
2018-01-02T12:52:58.046Z,75.35
2018-01-02T12:55:26.413Z,75.31
2018-01-02T12:57:54.768Z,75.42
2018-01-02T13:00:23.873Z,75.26
2018-01-02T13:02:52.181Z,75.27
2018-01-02T13:05:20.575Z,75.38
2018-01-02T13:07:48.900Z,75.45
2018-01-02T13:10:18.085Z,75.54
2018-01-02T13:12:46.421Z,75.37
2018-01-02T13:15:14.846Z,75.21
2018-01-02T13:17:43.155Z,75.79
2018-01-02T13:20:12.793Z,75.99
2018-01-02T13:22:41.116Z,75.85
2018-01-02T13:25:09.601Z,75.97
2018-01-02T13:27:37.949Z,75.91
2018-01-02T13:30:06.595Z,75.95
2018-01-02T13:32:34.951Z,75.88
2018-01-02T13:35:03.337Z,75.82
2018-01-02T13:37:31.835Z,75.94
2018-01-02T13:40:01.677Z,75.61
2018-01-02T13:42:30.747Z,75.71
2018-01-02T13:44:59.839Z,75.51
2018-01-02T13:47:28.269Z,75.70
2018-01-02T13:49:57.365Z,75.68
2018-01-02T13:52:26.473Z,76.09
2018-01-02T13:54:54.801Z,75.93
2018-01-02T13:57:23.115Z,76.10
2018-01-02T13:59:51.429Z,76.04
2018-01-02T14:02:19.757Z,75.93
2018-01-02T14:04:48.063Z,75.84
2018-01-02T14:07:17.167Z,75.91
2018-01-02T14:09:46.353Z,76.23
2018-01-02T14:12:14.644Z,76.28
2018-01-02T14:14:43.741Z,76.02
2018-01-02T14:17:12.078Z,76.00
2018-01-02T14:19:40.431Z,75.93
2018-01-02T14:22:08.736Z,75.77
2018-01-02T14:24:37.053Z,76.17
2018-01-02T14:27:05.409Z,75.79
2018-01-02T14:29:33.735Z,75.66
2018-01-02T14:32:02.809Z,75.59
2018-01-02T14:34:31.136Z,75.50
2018-01-02T14:36:59.453Z,75.47
2018-01-02T14:39:27.763Z,75.77
2018-01-02T14:41:56.094Z,75.96
2018-01-02T14:44:24.407Z,76.20
2018-01-02T14:46:52.729Z,76.40
2018-01-02T14:49:21.801Z,76.12
2018-01-02T14:51:50.127Z,75.85
2018-01-02T14:54:18.456Z,75.88
2018-01-02T14:56:46.776Z,76.28
2018-01-02T14:59:15.835Z,76.75
2018-01-02T15:01:44.397Z,76.47
2018-01-02T15:04:12.753Z,76.62
2018-01-02T15:06:41.074Z,76.70
2018-01-02T15:09:09.380Z,76.37
2018-01-02T15:11:39.179Z,76.73
2018-01-02T15:14:07.471Z,77.00
2018-01-02T15:16:35.779Z,77.08
2018-01-02T15:19:04.107Z,77.14
2018-01-02T15:21:32.461Z,77.19
2018-01-02T15:24:00.775Z,77.42
2018-01-02T15:26:29.092Z,77.38
2018-01-02T15:28:57.405Z,77.17
2018-01-02T15:31:26.481Z,77.08
2018-01-02T15:33:55.118Z,77.15
2018-01-02T15:36:23.445Z,77.18
2018-01-02T15:38:52.510Z,77.14
2018-01-02T15:41:20.833Z,77.10
2018-01-02T15:43:49.983Z,77.07
2018-01-02T15:46:18.305Z,77.27
2018-01-02T15:48:47.372Z,77.33
2018-01-02T15:51:15.691Z,77.21
2018-01-02T15:53:45.498Z,77.26
2018-01-02T15:56:13.809Z,77.28
2018-01-02T15:58:42.898Z,77.23
2018-01-02T16:01:11.976Z,77.06
2018-01-02T16:03:41.127Z,77.10
2018-01-02T16:06:10.185Z,77.17
2018-01-02T16:08:39.266Z,77.45
2018-01-02T16:11:07.624Z,77.53
2018-01-02T16:13:36.024Z,77.52
2018-01-02T16:16:04.481Z,77.27
2018-01-02T16:18:32.818Z,77.25
2018-01-02T16:21:01.963Z,77.29
2018-01-02T16:23:30.446Z,77.35
2018-01-02T16:25:58.755Z,77.33
2018-01-02T16:28:27.087Z,77.50
2018-01-02T16:30:56.191Z,77.43
2018-01-02T16:33:26.086Z,77.39
2018-01-02T16:35:54.395Z,77.53
2018-01-02T16:38:23.630Z,77.27
2018-01-02T16:40:51.960Z,77.09
2018-01-02T16:43:21.032Z,77.90
2018-01-02T16:45:50.166Z,77.60
2018-01-02T16:48:19.674Z,77.41
2018-01-02T16:50:48.745Z,77.40
2018-01-02T16:53:17.146Z,77.68
2018-01-02T16:55:46.265Z,77.87
2018-01-02T16:58:15.330Z,78.10
2018-01-02T17:00:44.368Z,78.49
2018-01-02T17:03:12.710Z,78.68
2018-01-02T17:05:41.130Z,81.18
2018-01-02T17:08:10.228Z,80.84
2018-01-02T17:10:39.390Z,80.91
2018-01-02T17:13:07.834Z,80.63
2018-01-02T17:15:36.153Z,80.80
2018-01-02T17:20:39.083Z,81.03
2018-01-02T17:23:07.379Z,80.87
2018-01-02T17:25:36.570Z,80.93
2018-01-02T17:28:05.639Z,80.90
2018-01-02T17:30:33.940Z,81.28
2018-01-02T17:33:03.025Z,81.53
2018-01-02T17:35:31.357Z,81.85
2018-01-02T17:37:59.691Z,82.34
2018-01-02T17:40:28.034Z,82.51
2018-01-02T17:42:56.376Z,82.66
2018-01-02T17:45:25.518Z,82.78
2018-01-02T17:47:53.851Z,83.03
2018-01-02T17:50:22.193Z,83.66
2018-01-02T17:52:50.485Z,83.99
2018-01-02T17:55:18.974Z,84.22
2018-01-02T17:57:47.538Z,84.43
2018-01-02T18:00:15.911Z,84.50
2018-01-02T18:02:44.218Z,84.59
2018-01-02T18:05:12.514Z,84.60
2018-01-02T18:07:42.343Z,84.79
2018-01-02T18:10:10.679Z,84.85
2018-01-02T18:12:38.960Z,84.91
2018-01-02T18:15:07.253Z,84.97
2018-01-02T18:17:35.556Z,84.96
2018-01-02T18:20:03.852Z,85.26
2018-01-02T18:22:32.171Z,85.45
2018-01-02T18:25:00.486Z,85.64
2018-01-02T18:27:28.816Z,85.82
2018-01-02T18:29:57.913Z,86.10
2018-01-02T18:32:26.968Z,86.14
2018-01-02T18:34:55.290Z,86.50
2018-01-02T18:37:23.629Z,86.67
2018-01-02T18:39:51.929Z,86.82
2018-01-02T18:42:20.836Z,86.88
2018-01-02T18:44:49.915Z,87.13
2018-01-02T18:47:18.202Z,87.55
2018-01-02T18:49:46.548Z,87.71
2018-01-02T18:52:14.876Z,87.92
2018-01-02T18:54:43.244Z,88.01
2018-01-02T18:57:11.598Z,88.11
2018-01-02T18:59:40.267Z,88.21
2018-01-02T19:02:08.756Z,88.40
2018-01-02T19:04:37.414Z,88.44
2018-01-02T19:07:05.800Z,88.51
2018-01-02T19:09:34.411Z,88.75
2018-01-02T19:12:03.076Z,88.85
2018-01-02T19:14:31.428Z,88.98
2018-01-02T19:16:59.842Z,89.65
2018-01-02T19:19:29.272Z,90.38
2018-01-02T19:21:57.627Z,90.21
2018-01-02T19:24:26.860Z,90.17
2018-01-02T19:26:55.236Z,90.05
2018-01-02T19:29:24.537Z,89.87
2018-01-02T19:31:53.080Z,89.63
2018-01-02T19:34:22.202Z,89.75
2018-01-02T19:36:52.012Z,89.93
2018-01-02T19:39:20.376Z,89.85
2018-01-02T19:41:48.994Z,89.89
2018-01-02T19:44:17.526Z,89.93
2018-01-02T19:46:45.846Z,90.00
2018-01-02T19:49:14.342Z,90.02
2018-01-02T19:51:43.462Z,90.16
2018-01-02T19:54:12.802Z,90.20
2018-01-02T19:56:41.171Z,90.22
2018-01-02T19:59:09.478Z,90.28
2018-01-02T20:01:37.793Z,90.33
2018-01-02T20:04:06.145Z,90.56
2018-01-02T20:06:34.815Z,90.45
2018-01-02T20:09:03.530Z,90.49
2018-01-02T20:11:33.994Z,90.47
2018-01-02T20:14:02.891Z,90.50
2018-01-02T20:16:31.605Z,90.42
2018-01-02T20:18:59.978Z,90.52
2018-01-02T20:21:29.408Z,90.53
2018-01-02T20:23:57.752Z,90.51
2018-01-02T20:26:26.334Z,90.47
2018-01-02T20:28:56.247Z,90.62
2018-01-02T20:31:24.580Z,90.46
2018-01-02T20:33:52.936Z,90.50
2018-01-02T20:36:22.018Z,90.61
2018-01-02T20:38:50.632Z,90.53
2018-01-02T20:41:19.084Z,90.50
2018-01-02T20:43:47.656Z,90.42
2018-01-02T20:46:16.824Z,90.48
2018-01-02T20:48:45.471Z,90.54
2018-01-02T20:51:14.176Z,90.43
2018-01-02T20:53:42.563Z,90.35
2018-01-02T20:56:11.650Z,90.54
2018-01-02T20:58:39.974Z,90.52
2018-01-02T21:01:08.263Z,90.54
2018-01-02T21:03:37.097Z,90.55
2018-01-02T21:06:05.822Z,90.67
2018-01-02T21:08:34.549Z,90.70
2018-01-02T21:11:04.407Z,90.68
2018-01-02T21:13:33.382Z,90.77
2018-01-02T21:16:01.780Z,91.64
2018-01-02T21:18:30.878Z,92.02
2018-01-02T21:20:59.740Z,92.19
2018-01-02T21:23:28.068Z,92.26
2018-01-02T21:25:57.142Z,92.37
2018-01-02T21:28:25.454Z,92.45
2018-01-02T21:30:54.732Z,92.54
2018-01-02T21:33:23.369Z,92.52
2018-01-02T21:35:51.681Z,92.48
2018-01-02T21:38:20.089Z,92.51
2018-01-02T21:40:49.197Z,92.54
2018-01-02T21:43:17.563Z,92.54
2018-01-02T21:45:45.980Z,92.62
2018-01-02T21:48:15.425Z,92.61
2018-01-02T21:50:45.194Z,92.64
2018-01-02T21:53:13.924Z,92.62
2018-01-02T21:55:44.310Z,92.68
2018-01-02T21:58:16.129Z,92.66
2018-01-02T22:00:47.920Z,92.61
2018-01-02T22:03:17.045Z,92.61
2018-01-02T22:06:08.738Z,92.68
2018-01-02T22:08:37.167Z,92.70
2018-01-02T22:11:05.767Z,92.67
2018-01-02T22:13:36.669Z,92.66
2018-01-02T22:16:05.127Z,91.89
2018-01-02T22:18:33.448Z,91.56
2018-01-02T22:21:02.539Z,91.43
2018-01-02T22:23:31.042Z,91.40
2018-01-02T22:25:59.387Z,91.42
2018-01-02T22:28:27.712Z,91.39
2018-01-02T22:30:56.121Z,91.31
2018-01-02T22:33:24.481Z,91.34
2018-01-02T22:35:52.860Z,91.39
2018-01-02T22:38:21.225Z,91.40
2018-01-02T22:40:50.355Z,91.41
2018-01-02T22:43:18.680Z,91.51
2018-01-02T22:45:46.987Z,91.61
2018-01-02T22:48:16.070Z,91.73
2018-01-02T22:50:44.461Z,91.69
2018-01-02T22:53:12.797Z,91.68
2018-01-02T22:55:41.103Z,91.73
2018-01-02T22:58:09.443Z,91.79
2018-01-02T23:00:40.595Z,91.83
2018-01-02T23:03:08.917Z,91.89
2018-01-02T23:05:37.250Z,91.96
2018-01-02T23:08:05.549Z,91.92
2018-01-02T23:10:33.861Z,91.92
2018-01-02T23:13:02.173Z,91.97
2018-01-02T23:15:31.461Z,92.06
2018-01-02T23:17:59.787Z,92.10
2018-01-02T23:20:28.144Z,92.06
2018-01-02T23:22:57.245Z,92.03
2018-01-02T23:25:25.619Z,92.11
2018-01-02T23:27:54.701Z,92.05
2018-01-02T23:30:23.041Z,92.09
2018-01-02T23:32:51.359Z,92.09
2018-01-02T23:35:19.673Z,92.05
2018-01-02T23:37:48.805Z,92.01
2018-01-02T23:40:17.152Z,91.99
2018-01-02T23:42:46.230Z,92.10
2018-01-02T23:45:14.560Z,92.12
2018-01-02T23:47:42.890Z,92.10
2018-01-02T23:50:11.195Z,92.15
2018-01-02T23:52:40.399Z,91.86
2018-01-02T23:55:09.497Z,92.01
2018-01-02T23:57:38.598Z,92.05
